Time;durP1;ratioP1;P1;durP2;ratioP2;P2;SDS_P1;SDS_P2;PMS_P1;PMS_P2;Temp;Humidity;BMP_temperature;BMP_pressure;BME280_temperature;BME280_humidity;BME280_pressure;Samples;Min_cycle;Max_cycle;Signal;HPM_P1;HPM_P2
2022/08/15 00:00:28;;;;;;;9.23;5.55;;;;;;;23.96;60.69;100341.41;2055267;28;23516;-69
2022/08/15 00:01:36;;;;;;;7.25;5.47;;;;;;;23.95;60.69;100334.22;2054869;28;32670;-70
2022/08/15 00:02:43;;;;;;;6.25;5.65;;;;;;;23.95;60.48;100337.78;2055019;28;29794;-69
2022/08/15 00:03:54;;;;;;;6.75;5.53;;;;;;;23.97;60.19;100337.66;2055912;28;20174;-69
2022/08/15 00:05:02;;;;;;;6.75;5.20;;;;;;;23.95;60.28;100336.94;2055135;28;39423;-70
2022/08/15 00:06:11;;;;;;;7.65;5.95;;;;;;;23.97;59.99;100338.53;2054254;28;24853;-69
2022/08/15 00:07:33;;;;;;;5.32;4.68;;;;;;;23.96;60.02;100339.53;2054524;28;20843;-70
2022/08/15 00:08:51;;;;;;;8.35;5.38;;;;;;;23.96;60.47;100338.69;2062905;28;25368;-69
2022/08/15 00:09:54;;;;;;;11.18;5.45;;;;;;;23.94;60.00;100336.09;2060195;28;21548;-69
2022/08/15 00:11:12;;;;;;;7.85;5.70;;;;;;;23.94;60.04;100344.28;2055218;28;29568;-69
2022/08/15 00:12:19;;;;;;;8.77;6.55;;;;;;;23.93;60.36;100337.06;2061973;28;31976;-69
2022/08/15 00:13:30;;;;;;;6.47;5.47;;;;;;;23.94;60.07;100332.47;2060230;28;32693;-70
2022/08/15 00:14:41;;;;;;;6.45;5.63;;;;;;;23.93;60.08;100328.88;2055270;28;26323;-69
2022/08/15 00:15:47;;;;;;;6.80;5.57;;;;;;;23.94;59.93;100337.94;2055696;28;32804;-69
2022/08/15 00:16:49;;;;;;;6.22;5.70;;;;;;;23.93;60.62;100337.06;2055279;28;24297;-68
2022/08/15 00:17:55;;;;;;;6.30;5.22;;;;;;;23.94;59.93;100330.63;2064020;28;29837;-68
2022/08/15 00:18:57;;;;;;;8.23;5.40;;;;;;;23.92;60.29;100329.00;2063347;28;23748;-69
2022/08/15 00:19:59;;;;;;;6.28;5.68;;;;;;;23.90;59.91;100331.88;2056992;28;20051;-69
2022/08/15 00:21:03;;;;;;;7.38;5.55;;;;;;;23.90;60.14;100331.88;2056940;28;20047;-69
2022/08/15 00:22:18;;;;;;;10.15;5.45;;;;;;;23.90;60.58;100329.13;2056425;28;28767;-69
2022/08/15 00:23:26;;;;;;;8.02;5.57;;;;;;;23.89;60.41;100332.88;2056488;28;31296;-69
2022/08/15 00:24:31;;;;;;;7.50;5.63;;;;;;;23.87;60.05;100326.69;2056520;28;23158;-69
2022/08/15 00:25:37;;;;;;;5.88;5.28;;;;;;;23.86;60.19;100322.22;2056161;28;37728;-69
2022/08/15 00:26:39;;;;;;;7.82;5.80;;;;;;;23.87;60.20;100325.81;2056379;28;26177;-69
2022/08/15 00:27:56;;;;;;;7.60;5.63;;;;;;;23.84;60.43;100316.03;2064498;28;20046;-69
2022/08/15 00:28:58;;;;;;;7.72;5.80;;;;;;;23.86;60.32;100319.47;2063720;28;21037;-68
2022/08/15 00:30:03;;;;;;;6.05;5.55;;;;;;;23.84;60.38;100310.56;2063862;28;29924;-68
2022/08/15 00:31:10;;;;;;;8.13;5.53;;;;;;;23.85;60.27;100312.31;2063557;28;25629;-69
2022/08/15 00:32:18;;;;;;;6.50;5.68;;;;;;;23.81;60.60;100314.44;2063565;28;26407;-69
2022/08/15 00:33:40;;;;;;;6.35;5.78;;;;;;;23.81;60.43;100310.81;2056900;28;20044;-69
2022/08/15 00:34:43;;;;;;;10.93;6.07;;;;;;;23.80;60.08;100306.38;2056349;28;20892;-69
2022/08/15 00:35:49;;;;;;;11.27;5.72;;;;;;;23.80;60.62;100309.09;2056431;28;29693;-69
2022/08/15 00:37:01;;;;;;;6.43;5.80;;;;;;;23.78;60.31;100309.19;2056825;28;20047;-69
2022/08/15 00:38:15;;;;;;;7.13;5.78;;;;;;;23.78;60.28;100308.34;2056472;28;27547;-69
2022/08/15 00:39:25;;;;;;;9.40;5.75;;;;;;;23.78;60.00;100308.34;2040651;29;20036;-68
2022/08/15 00:40:27;;;;;;;7.22;6.00;;;;;;;23.75;60.54;100309.47;2047952;28;28386;-68
2022/08/15 00:41:39;;;;;;;6.35;5.75;;;;;;;23.76;60.37;100315.78;2047731;28;27923;-68
2022/08/15 00:42:42;;;;;;;7.25;6.03;;;;;;;23.74;60.10;100309.59;2048610;28;20881;-69
2022/08/15 00:43:53;;;;;;;9.77;5.65;;;;;;;23.74;60.38;100310.47;2039583;29;24185;-69
2022/08/15 00:44:57;;;;;;;6.82;6.13;;;;;;;23.74;60.23;100304.13;2040133;29;24787;-69
2022/08/15 00:46:07;;;;;;;6.82;5.63;;;;;;;23.74;60.39;100302.28;2047945;28;20127;-68
2022/08/15 00:47:20;;;;;;;7.93;5.57;;;;;;;23.74;60.71;100301.41;2047884;28;20047;-69
2022/08/15 00:49:45;;;;;;;8.48;5.97;;;;;;;23.72;60.08;100306.13;2039625;29;32015;-69
2022/08/15 00:51:09;;;;;;;6.15;5.55;;;;;;;23.72;60.11;100300.66;2040971;29;20048;-70
2022/08/15 00:52:26;;;;;;;7.93;5.55;;;;;;;23.70;60.24;100302.69;2048549;28;20640;-70
2022/08/15 00:53:32;;;;;;;6.47;5.50;;;;;;;23.69;59.81;100301.81;2044916;28;20044;-69
2022/08/15 00:54:54;;;;;;;6.95;5.82;;;;;;;23.69;59.92;100304.56;2039636;29;27000;-69
2022/08/15 00:55:58;;;;;;;6.78;5.63;;;;;;;23.69;59.80;100301.81;2043223;28;20051;-68
2022/08/15 00:57:13;;;;;;;6.10;5.60;;;;;;;23.69;59.71;100300.94;2046751;28;20044;-69
2022/08/15 00:58:20;;;;;;;6.80;6.10;;;;;;;23.68;59.67;100299.22;2040484;28;22688;-69
2022/08/15 00:59:33;;;;;;;6.18;5.65;;;;;;;23.68;59.63;100296.50;2048014;28;21535;-69
2022/08/15 01:00:42;;;;;;;8.82;5.80;;;;;;;23.67;59.71;100300.22;2045783;28;20116;-69
2022/08/15 01:01:47;;;;;;;8.00;5.85;;;;;;;23.66;59.82;100295.75;2047756;28;20178;-69
2022/08/15 01:02:49;;;;;;;6.32;5.68;;;;;;;23.67;60.04;100302.94;2047388;28;26573;-68
2022/08/15 01:03:52;;;;;;;5.60;5.18;;;;;;;23.64;59.56;100288.56;2047533;28;28201;-69
2022/08/15 01:04:58;;;;;;;7.88;6.13;;;;;;;23.63;59.99;100297.78;2047593;28;20040;-68
2022/08/15 01:06:04;;;;;;;6.13;5.57;;;;;;;23.62;59.50;100301.50;2040338;29;25432;-69
2022/08/15 01:07:09;;;;;;;6.22;5.40;;;;;;;23.61;59.42;100298.88;2047954;28;20194;-68
2022/08/15 01:08:11;;;;;;;8.07;6.03;;;;;;;23.59;59.12;100298.16;2047279;28;21353;-65
2022/08/15 01:09:16;;;;;;;6.65;5.57;;;;;;;23.59;59.53;100296.28;2040061;28;20902;-68
2022/08/15 01:10:19;;;;;;;6.25;5.63;;;;;;;23.59;59.93;100299.03;2047823;28;20043;-68
2022/08/15 01:11:45;;;;;;;6.38;5.78;;;;;;;23.61;59.37;100293.41;2046999;28;20114;-69
2022/08/15 01:12:47;;;;;;;6.30;5.80;;;;;;;23.57;59.40;100295.56;2047487;28;20890;-69
2022/08/15 01:13:53;;;;;;;5.68;5.13;;;;;;;23.56;59.36;100299.31;2047716;28;20040;-70
2022/08/15 01:15:14;;;;;;;9.00;6.00;;;;;;;23.56;59.49;100296.59;2047508;28;20872;-69
2022/08/15 01:16:20;;;;;;;6.05;5.40;;;;;;;23.56;58.96;100298.41;2040016;29;20036;-69
2022/08/15 01:17:32;;;;;;;5.97;5.38;;;;;;;23.56;59.66;100292.97;2040741;29;20159;-69
2022/08/15 01:18:35;;;;;;;5.95;5.45;;;;;;;23.54;58.99;100300.44;2047583;28;20067;-68
2022/08/15 01:19:49;;;;;;;6.03;5.40;;;;;;;23.51;59.02;100296.13;2047825;28;20043;-69
2022/08/15 01:20:54;;;;;;;6.28;5.68;;;;;;;23.51;59.60;100293.38;2045899;28;21555;-69
2022/08/15 01:22:41;;;;;;;9.27;5.88;;;;;;;23.51;59.34;100296.13;2039857;28;20131;-70
2022/08/15 01:24:22;;;;;;;6.82;5.18;;;;;;;23.48;59.17;100296.38;2039552;29;20048;-68
2022/08/15 01:25:34;;;;;;;7.50;5.97;;;;;;;23.45;59.43;100293.91;2023197;29;20089;-68
2022/08/15 01:26:56;;;;;;;7.05;5.10;;;;;;;23.42;59.86;100288.72;2039867;29;20040;-69
2022/08/15 01:28:11;;;;;;;5.82;5.30;;;;;;;23.41;59.53;100287.84;2040445;28;20040;-68
2022/08/15 01:29:17;;;;;;;6.85;5.80;;;;;;;23.39;59.77;100292.56;2046410;28;20925;-69
2022/08/15 01:30:25;;;;;;;7.85;5.55;;;;;;;23.37;60.00;100291.84;2047652;28;20936;-68
2022/08/15 01:31:41;;;;;;;6.20;5.53;;;;;;;23.34;60.28;100288.50;2040088;29;20078;-69
2022/08/15 01:32:53;;;;;;;14.68;6.35;;;;;;;23.32;60.09;100285.06;2047345;28;20048;-68
2022/08/15 01:33:59;;;;;;;6.97;5.75;;;;;;;23.31;60.22;100291.50;2039542;29;20654;-68
2022/08/15 01:35:03;;;;;;;6.43;5.70;;;;;;;23.29;60.18;100288.03;2039828;29;32675;-69
2022/08/15 01:36:05;;;;;;;6.32;5.75;;;;;;;23.22;60.81;100288.59;2047403;28;20118;-70
2022/08/15 01:37:28;;;;;;;6.40;5.78;;;;;;;23.22;60.37;100287.69;2047305;28;20051;-68
2022/08/15 01:39:30;;;;;;;6.60;5.95;;;;;;;23.19;60.84;100282.53;2039470;28;20040;-70
2022/08/15 01:40:58;;;;;;;6.93;5.93;;;;;;;23.18;61.17;100284.38;2045255;28;20036;-69
2022/08/15 01:42:09;;;;;;;8.00;5.90;;;;;;;23.14;61.01;100285.66;2047493;28;20040;-68
2022/08/15 01:43:12;;;;;;;8.45;6.05;;;;;;;23.11;61.13;100288.63;2047587;28;20056;-69
2022/08/15 01:44:37;;;;;;;6.88;6.18;;;;;;;23.12;61.28;100290.38;2047748;28;20040;-68
2022/08/15 01:45:55;;;;;;;6.32;5.80;;;;;;;23.09;61.39;100293.38;2039485;29;20056;-68
2022/08/15 01:47:24;;;;;;;9.13;5.80;;;;;;;23.06;61.04;100288.19;2039986;29;20911;-70
2022/08/15 01:48:36;;;;;;;;;;;;;;;23.04;61.11;100292.84;2047956;28;20036;-69
2022/08/15 01:49:51;;;;;;;7.55;5.82;;;;;;;23.02;61.39;100293.00;2047236;28;19923;-70
2022/08/15 01:51:06;;;;;;;6.72;6.10;;;;;;;23.00;63.47;100286.78;2039614;29;20463;-68
2022/08/15 01:52:16;;;;;;;7.07;6.30;;;;;;;22.97;62.73;100287.06;2035211;29;20829;-69
2022/08/15 01:53:54;;;;;;;6.88;6.18;;;;;;;22.92;62.15;100299.41;2042538;28;20043;-68
2022/08/15 01:55:02;;;;;;;7.13;6.20;;;;;;;22.88;63.07;100296.91;2039641;29;20088;-68
2022/08/15 01:56:28;;;;;;;8.07;5.80;;;;;;;22.85;62.35;100296.31;2040378;28;20202;-68
2022/08/15 01:57:34;;;;;;;8.68;6.15;;;;;;;22.82;62.89;100296.56;2044447;28;20871;-69
2022/08/15 01:58:42;;;;;;;7.45;6.63;;;;;;;22.79;65.70;100299.53;2047152;28;20094;-69
2022/08/15 01:59:58;;;;;;;6.97;6.20;;;;;;;22.71;65.99;100299.34;2047538;28;20036;-71
2022/08/15 02:01:06;;;;;;;6.35;5.82;;;;;;;22.63;65.79;100303.59;2039024;29;20152;-72
2022/08/15 02:02:11;;;;;;;8.18;6.22;;;;;;;22.55;65.71;100305.22;2033284;29;20044;-72
2022/08/15 02:03:35;;;;;;;7.03;6.32;;;;;;;22.47;67.52;100304.00;2042479;28;20105;-72
2022/08/15 02:04:54;;;;;;;7.03;6.20;;;;;;;22.38;67.98;100304.75;2047363;28;20051;-71
2022/08/15 02:05:56;;;;;;;6.70;6.15;;;;;;;22.33;69.25;100306.13;2047744;28;20110;-71
2022/08/15 02:07:12;;;;;;;8.50;6.78;;;;;;;22.25;69.79;100304.00;2047149;28;20111;-71
2022/08/15 02:08:17;;;;;;;7.63;6.97;;;;;;;22.20;69.79;100308.94;2047540;28;21000;-71
2022/08/15 02:09:36;;;;;;;7.15;6.53;;;;;;;22.12;69.89;100305.00;2046059;28;20943;-70
2022/08/15 02:10:54;;;;;;;7.30;6.57;;;;;;;22.09;68.75;100299.81;2047389;28;21018;-70
2022/08/15 02:12:01;;;;;;;10.27;6.82;;;;;;;22.09;68.41;100305.25;2046742;28;30032;-70
2022/08/15 02:13:05;;;;;;;7.88;6.22;;;;;;;22.09;68.24;100298.91;2039746;28;20095;-70
2022/08/15 02:14:14;;;;;;;8.40;6.63;;;;;;;22.09;68.74;100297.09;2040175;28;20048;-71
2022/08/15 02:15:26;;;;;;;7.07;6.38;;;;;;;22.09;67.53;100297.09;2039331;29;29447;-72
2022/08/15 02:16:37;;;;;;;7.07;6.38;;;;;;;22.07;67.88;100290.91;2039819;28;20429;-71
2022/08/15 02:17:41;;;;;;;6.78;6.22;;;;;;;22.06;67.79;100294.59;2039685;28;29698;-70
2022/08/15 02:18:43;;;;;;;6.95;6.35;;;;;;;22.06;67.40;100294.59;2047382;28;20139;-70
2022/08/15 02:19:50;;;;;;;7.75;6.30;;;;;;;22.06;67.39;100294.59;2039006;29;20912;-70
2022/08/15 02:20:55;;;;;;;8.43;5.72;;;;;;;22.06;66.52;100283.69;2040441;28;20894;-71
2022/08/15 02:21:56;;;;;;;7.05;5.88;;;;;;;22.06;67.16;100280.97;2047426;28;20051;-70
2022/08/15 02:22:58;;;;;;;9.18;6.90;;;;;;;22.08;66.61;100284.44;2048109;28;20035;-71
2022/08/15 02:24:03;;;;;;;7.05;6.43;;;;;;;22.15;65.87;100281.22;2055605;28;20125;-71
2022/08/15 02:25:08;;;;;;;8.60;6.20;;;;;;;22.17;64.63;100279.22;2055154;28;22351;-69
2022/08/15 02:26:12;;;;;;;6.50;6.00;;;;;;;22.16;65.16;100282.94;2055499;28;20833;-71
2022/08/15 02:27:16;;;;;;;7.55;6.15;;;;;;;22.16;65.51;100272.88;2062874;28;20956;-70
2022/08/15 02:28:18;;;;;;;7.57;6.63;;;;;;;22.14;65.37;100268.56;2063390;28;20153;-70
2022/08/15 02:29:39;;;;;;;10.02;6.53;;;;;;;22.14;65.58;100274.88;2063331;28;20093;-70
2022/08/15 02:30:54;;;;;;;6.53;5.90;;;;;;;22.12;65.53;100275.00;2063372;28;20117;-70
2022/08/15 02:32:09;;;;;;;6.85;6.18;;;;;;;22.12;65.41;100276.88;2062896;28;20911;-70
2022/08/15 02:33:12;;;;;;;6.45;5.78;;;;;;;22.15;64.82;100278.50;2061918;28;20541;-70
2022/08/15 02:34:15;;;;;;;7.47;6.82;;;;;;;22.17;65.57;100277.34;2063294;28;20054;-70
2022/08/15 02:35:19;;;;;;;7.45;6.00;;;;;;;22.18;64.72;100280.94;2063751;28;20038;-70
2022/08/15 02:36:23;;;;;;;7.82;6.00;;;;;;;22.20;64.98;100281.69;2063467;28;20369;-70
2022/08/15 02:37:32;;;;;;;;;;;;;;;22.22;64.67;100277.84;2062992;28;20039;-70
2022/08/15 02:38:38;;;;;;;10.20;6.07;;;;;;;22.20;64.71;100273.50;2063296;28;20012;-69
2022/08/15 02:39:52;;;;;;;6.70;5.68;;;;;;;22.22;64.03;100277.00;2062636;28;20046;-70
2022/08/15 02:40:59;;;;;;;7.80;6.20;;;;;;;22.23;64.14;100270.53;2055484;28;20046;-70
2022/08/15 02:42:01;;;;;;;7.35;6.28;;;;;;;22.20;64.35;100265.31;2054848;28;20920;-68
2022/08/15 02:43:10;;;;;;;10.15;5.80;;;;;;;22.20;64.23;100265.31;2063446;28;20348;-69
2022/08/15 02:44:13;;;;;;;;;;;;;;;22.21;63.73;100261.59;2063726;28;20859;-69
2022/08/15 02:45:21;;;;;;;6.60;6.00;;;;;;;22.22;64.20;100266.09;2063490;28;20783;-69
2022/08/15 02:46:23;;;;;;;6.10;5.50;;;;;;;22.22;63.84;100266.09;2063310;28;20047;-69
2022/08/15 02:47:33;;;;;;;10.10;5.63;;;;;;;22.21;64.11;100264.34;2063454;28;20966;-70
2022/08/15 02:48:38;;;;;;;6.60;6.00;;;;;;;22.20;63.60;100258.03;2062782;28;20050;-70
2022/08/15 02:49:43;;;;;;;7.75;6.05;;;;;;;22.20;64.21;100262.59;2063305;28;20043;-70
2022/08/15 02:50:51;;;;;;;6.15;5.65;;;;;;;22.17;64.37;100263.72;2062993;28;20078;-69
2022/08/15 02:51:53;;;;;;;7.32;5.43;;;;;;;22.16;64.60;100255.66;2063469;28;20053;-70
2022/08/15 02:53:00;;;;;;;7.65;5.70;;;;;;;22.16;64.92;100261.13;2062696;28;20043;-70
2022/08/15 02:54:02;;;;;;;6.57;5.25;;;;;;;22.14;65.08;100254.94;2063768;28;20046;-71
2022/08/15 02:55:24;;;;;;;6.50;5.78;;;;;;;22.15;64.69;100259.41;2063249;28;20042;-71
2022/08/15 02:56:31;;;;;;;6.07;5.47;;;;;;;22.15;63.79;100253.94;2062799;28;20174;-70
2022/08/15 02:57:35;;;;;;;8.25;5.35;;;;;;;22.15;63.93;100252.09;2055727;28;20879;-70
2022/08/15 02:58:58;;;;;;;6.20;5.63;;;;;;;22.16;64.21;100250.22;2063291;28;20035;-70
2022/08/15 03:00:01;;;;;;;7.15;6.20;;;;;;;22.14;63.98;100246.75;2063166;28;20094;-69
2022/08/15 03:01:20;;;;;;;6.10;5.50;;;;;;;22.14;63.88;100250.34;2062881;28;20185;-69
2022/08/15 03:02:27;;;;;;;6.85;6.10;;;;;;;22.13;63.83;100243.16;2063357;28;20035;-69
2022/08/15 03:03:31;;;;;;;8.60;6.22;;;;;;;22.12;64.11;100245.00;2062521;28;23582;-69
2022/08/15 03:04:35;;;;;;;6.57;5.95;;;;;;;22.13;64.13;100235.00;2055246;28;20868;-68
2022/08/15 03:05:42;;;;;;;6.40;5.70;;;;;;;22.12;64.65;100233.25;2055208;28;20047;-69
2022/08/15 03:06:46;;;;;;;6.43;5.57;;;;;;;22.10;65.00;100240.69;2063061;28;20046;-69
2022/08/15 03:07:49;;;;;;;7.50;6.28;;;;;;;22.09;64.91;100244.38;2063280;28;20769;-70
2022/08/15 03:08:58;;;;;;;6.63;5.90;;;;;;;22.08;64.86;100239.94;2062720;28;20043;-69
2022/08/15 03:09:59;;;;;;;7.28;6.53;;;;;;;22.08;65.53;100243.53;2062388;28;21070;-69
2022/08/15 03:11:11;;;;;;;8.35;6.28;;;;;;;22.07;65.30;100238.19;2062536;28;20039;-69
2022/08/15 03:12:15;;;;;;;6.50;5.68;;;;;;;22.06;65.46;100234.63;2062913;28;20062;-68
2022/08/15 03:13:23;;;;;;;6.63;6.03;;;;;;;22.08;65.28;100243.53;2062889;28;20034;-69
2022/08/15 03:14:26;;;;;;;8.73;6.05;;;;;;;22.09;65.03;100239.81;2062823;28;20073;-69
2022/08/15 03:16:06;;;;;;;6.77;6.10;;;;;;;22.08;65.14;100229.91;2062783;28;20867;-69
2022/08/15 03:17:10;;;;;;;6.85;6.28;;;;;;;22.07;66.08;100240.94;2056580;28;20244;-69
2022/08/15 03:18:20;;;;;;;6.88;6.28;;;;;;;22.07;65.95;100239.09;2055981;28;20217;-69
2022/08/15 03:19:35;;;;;;;8.02;5.70;;;;;;;22.05;65.67;100224.69;2054742;28;20182;-69
2022/08/15 03:20:44;;;;;;;7.75;6.00;;;;;;;22.03;66.20;100234.88;2056114;28;20066;-69
2022/08/15 03:21:51;;;;;;;8.07;6.40;;;;;;;22.01;65.75;100231.41;2062622;28;20039;-69
2022/08/15 03:22:53;;;;;;;6.25;5.75;;;;;;;22.00;65.95;100240.59;2063603;28;20047;-68
2022/08/15 03:23:59;;;;;;;6.95;6.13;;;;;;;21.98;65.79;100233.50;2062634;28;20102;-69
2022/08/15 03:25:01;;;;;;;8.57;6.00;;;;;;;21.97;66.00;100227.22;2062966;28;20863;-68
2022/08/15 03:26:04;;;;;;;6.00;5.47;;;;;;;21.96;65.91;100236.34;2062735;28;20920;-69
2022/08/15 03:27:09;;;;;;;6.07;5.47;;;;;;;21.95;66.13;100225.59;2063299;28;20998;-69
2022/08/15 03:28:13;;;;;;;7.13;6.43;;;;;;;21.92;65.67;100221.25;2062760;28;20098;-69
2022/08/15 03:29:21;;;;;;;7.38;6.47;;;;;;;21.91;66.44;100223.13;2062718;28;20042;-69
2022/08/15 03:30:26;;;;;;;7.22;5.90;;;;;;;21.91;66.05;100224.97;2062772;28;20193;-69
2022/08/15 03:31:29;;;;;;;6.65;5.88;;;;;;;21.89;66.06;100224.22;2063224;28;20800;-69
2022/08/15 03:32:31;;;;;;;8.68;6.10;;;;;;;21.88;66.10;100225.25;2054447;28;20138;-69
2022/08/15 03:33:41;;;;;;;6.93;6.32;;;;;;;21.85;66.25;100226.34;2054833;28;20051;-69
2022/08/15 03:34:56;;;;;;;8.13;6.25;;;;;;;21.82;66.52;100223.88;2060592;28;26774;-69
2022/08/15 03:35:59;;;;;;;7.20;6.50;;;;;;;21.84;65.93;100229.19;2055937;28;20032;-69
2022/08/15 03:37:01;;;;;;;6.80;5.97;;;;;;;21.84;66.52;100221.91;2062718;28;20934;-69
2022/08/15 03:38:05;;;;;;;6.57;5.97;;;;;;;21.82;66.67;100221.16;2062976;28;20129;-69
2022/08/15 03:39:10;;;;;;;6.55;5.82;;;;;;;21.80;65.97;100222.25;2062287;28;20035;-67
2022/08/15 03:40:15;;;;;;;7.40;6.57;;;;;;;21.79;66.53;100215.94;2054811;28;20047;-69
2022/08/15 03:41:17;;;;;;;6.43;5.72;;;;;;;21.78;66.56;100219.66;2054991;28;20960;-68
2022/08/15 03:42:21;;;;;;;6.50;5.90;;;;;;;21.76;66.60;100218.91;2062304;28;20039;-69
2022/08/15 03:43:28;;;;;;;7.68;5.88;;;;;;;21.74;66.61;100218.19;2054250;28;20932;-69
2022/08/15 03:44:40;;;;;;;7.28;6.47;;;;;;;21.74;66.82;100215.47;2056551;28;20157;-69
2022/08/15 03:46:08;;;;;;;6.80;6.13;;;;;;;21.73;66.23;100213.72;2063241;28;20051;-69
2022/08/15 03:47:11;;;;;;;7.65;6.03;;;;;;;21.74;66.57;100219.03;2063487;28;20043;-68
2022/08/15 03:48:13;;;;;;;7.07;5.50;;;;;;;21.72;66.77;100214.72;2055045;28;20035;-68
2022/08/15 03:49:22;;;;;;;10.63;6.27;;;;;;;21.70;67.01;100212.13;2055081;28;20121;-69
2022/08/15 03:50:46;;;;;;;7.63;6.28;;;;;;;21.68;66.75;100211.38;2055570;28;20377;-69
2022/08/15 03:51:48;;;;;;;7.60;6.53;;;;;;;21.68;66.73;100205.06;2063116;28;20819;-69
2022/08/15 03:52:56;;;;;;;7.07;6.25;;;;;;;21.69;66.50;100206.78;2063704;28;21035;-69
2022/08/15 03:53:59;;;;;;;6.78;6.10;;;;;;;21.68;66.37;100210.53;2064358;28;20035;-68
2022/08/15 03:55:06;;;;;;;7.03;6.32;;;;;;;21.67;66.27;100209.63;2064267;28;20162;-69
2022/08/15 03:56:24;;;;;;;6.70;6.10;;;;;;;21.66;66.41;100209.75;2064559;28;20042;-70
2022/08/15 03:57:27;;;;;;;6.30;5.70;;;;;;;21.64;66.28;100209.91;2063705;28;20472;-70
2022/08/15 03:58:32;;;;;;;9.43;6.43;;;;;;;21.64;66.45;100206.28;2064773;28;20039;-70
2022/08/15 03:59:43;;;;;;;7.35;5.65;;;;;;;21.62;66.27;100208.28;2064304;28;20039;-68
2022/08/15 04:00:49;;;;;;;7.25;6.20;;;;;;;21.61;66.44;100212.00;2063920;28;20081;-68
2022/08/15 04:01:53;;;;;;;10.02;6.50;;;;;;;21.60;66.82;100207.53;2064406;28;20050;-68
2022/08/15 04:03:16;;;;;;;7.45;6.10;;;;;;;21.59;66.17;100203.97;2063708;28;20081;-68
2022/08/15 04:04:18;;;;;;;8.18;6.35;;;;;;;21.59;66.54;100217.56;2064882;28;20954;-69
2022/08/15 04:05:23;;;;;;;10.05;5.85;;;;;;;21.58;66.89;100207.66;2056471;28;20157;-69
2022/08/15 04:06:29;;;;;;;9.48;6.60;;;;;;;21.57;66.51;100214.13;2056891;28;21746;-68
2022/08/15 04:07:36;;;;;;;9.80;6.07;;;;;;;21.56;66.76;100208.78;2064722;28;20158;-70
2022/08/15 04:08:45;;;;;;;7.18;6.40;;;;;;;21.56;66.57;100215.09;2064449;28;20051;-69
2022/08/15 04:10:11;;;;;;;7.05;6.30;;;;;;;21.56;66.73;100212.38;2063881;28;20058;-69
2022/08/15 04:11:33;;;;;;;7.28;6.60;;;;;;;21.58;66.34;100217.69;2064409;28;20908;-70
2022/08/15 04:12:44;;;;;;;6.63;5.95;;;;;;;21.56;66.34;100204.19;2048331;28;20108;-69
2022/08/15 04:13:51;;;;;;;6.90;6.20;;;;;;;21.55;66.03;100202.44;2072127;23;20075;-68
2022/08/15 04:14:55;;;;;;;6.32;5.82;;;;;;;21.54;66.33;100212.50;2066473;28;20128;-67
2022/08/15 04:16:00;;;;;;;7.15;6.45;;;;;;;21.56;66.37;100203.34;2063884;28;21002;-67
2022/08/15 04:17:10;;;;;;;7.38;6.43;;;;;;;21.55;66.60;100202.44;2056096;28;20244;-68
2022/08/15 04:18:20;;;;;;;7.78;6.00;;;;;;;21.56;66.34;100208.78;2049370;28;20055;-67
2022/08/15 04:19:43;;;;;;;7.35;6.65;;;;;;;21.56;65.95;100204.19;2050918;28;20880;-68
2022/08/15 04:20:48;;;;;;;6.95;6.28;;;;;;;21.57;65.63;100196.88;2056850;28;21008;-68
2022/08/15 04:21:51;;;;;;;11.70;6.13;;;;;;;21.57;65.92;100196.88;2055488;28;20147;-68
2022/08/15 04:22:56;;;;;;;7.15;5.70;;;;;;;21.57;65.99;100197.78;2056755;28;20044;-69
2022/08/15 04:24:02;;;;;;;7.22;6.25;;;;;;;21.59;65.42;100193.06;2063907;28;20160;-68
2022/08/15 04:25:32;;;;;;;7.35;6.22;;;;;;;21.61;65.62;100198.38;2056237;28;20055;-68
2022/08/15 04:26:44;;;;;;;6.53;5.97;;;;;;;21.61;65.60;100190.22;2056374;28;20741;-68
2022/08/15 04:27:59;;;;;;;7.72;6.10;;;;;;;21.60;65.61;100188.47;2056507;28;27033;-68
2022/08/15 04:29:02;;;;;;;6.88;6.28;;;;;;;21.61;65.27;100191.06;2064324;28;20189;-68
2022/08/15 04:30:08;;;;;;;8.10;6.60;;;;;;;21.60;65.75;100194.78;2064101;28;20251;-68
2022/08/15 04:31:19;;;;;;;6.63;6.03;;;;;;;21.62;65.83;100190.06;2064023;28;20089;-68
2022/08/15 04:32:26;;;;;;;8.20;5.95;;;;;;;21.63;65.04;100189.09;2063887;28;20055;-69
2022/08/15 04:33:32;;;;;;;7.10;6.40;;;;;;;21.70;65.13;100186.75;2064170;28;20090;-68
2022/08/15 04:35:01;;;;;;;5.65;5.25;;;;;;;21.86;64.85;100189.94;2056020;28;20043;-67
2022/08/15 04:36:10;;;;;;;6.72;5.80;;;;;;;22.02;64.40;100189.53;2049339;28;20044;-68
2022/08/15 04:37:22;;;;;;;8.18;5.93;;;;;;;22.18;63.40;100183.66;2058049;28;20074;-68
2022/08/15 04:38:25;;;;;;;7.30;6.60;;;;;;;22.34;62.91;100193.31;2054843;28;20174;-67
2022/08/15 04:39:27;;;;;;;6.40;5.88;;;;;;;22.56;62.38;100184.16;2055637;28;20816;-68
2022/08/15 04:40:40;;;;;;;6.35;5.85;;;;;;;22.78;61.85;100186.78;2056823;28;20896;-68
2022/08/15 04:42:03;;;;;;;9.35;6.20;;;;;;;22.97;61.05;100185.16;2056044;28;20845;-68
2022/08/15 04:43:06;;;;;;;8.13;5.75;;;;;;;22.88;60.64;100181.41;2055740;28;20189;-68
2022/08/15 04:44:08;;;;;;;8.43;6.07;;;;;;;22.80;61.10;100187.50;2064317;28;21048;-68
2022/08/15 04:45:21;;;;;;;8.63;5.72;;;;;;;22.79;60.98;100193.97;2057857;28;20337;-68
2022/08/15 04:46:23;;;;;;;6.55;6.03;;;;;;;22.64;61.51;100187.09;2056516;28;20047;-68
2022/08/15 04:47:28;;;;;;;7.90;5.85;;;;;;;22.59;61.86;100192.94;2063849;28;20105;-68
2022/08/15 04:48:37;;;;;;;6.65;6.07;;;;;;;22.52;62.07;100197.19;2064131;28;20414;-68
2022/08/15 04:49:39;;;;;;;6.82;5.75;;;;;;;22.42;62.32;100197.13;2063882;28;20057;-68
2022/08/15 04:50:47;;;;;;;8.00;6.10;;;;;;;22.35;62.68;100192.31;2063893;28;20050;-68
2022/08/15 04:51:49;;;;;;;7.97;5.63;;;;;;;22.27;62.95;100198.41;2063811;28;20800;-68
2022/08/15 04:52:55;;;;;;;5.90;5.32;;;;;;;22.25;63.06;100201.25;2064102;28;20216;-68
2022/08/15 04:54:00;;;;;;;7.25;6.10;;;;;;;22.22;63.24;100203.38;2055899;28;20031;-68
2022/08/15 04:55:06;;;;;;;8.98;5.90;;;;;;;22.15;63.61;100213.91;2056136;28;20129;-68
2022/08/15 04:56:10;;;;;;;8.25;6.68;;;;;;;22.10;63.89;100208.81;2063896;28;20086;-68
2022/08/15 04:57:33;;;;;;;7.90;6.45;;;;;;;22.05;64.18;100216.50;2063876;28;20056;-68
2022/08/15 04:58:39;;;;;;;8.95;5.70;;;;;;;22.04;64.30;100212.06;2055784;28;20106;-68
2022/08/15 04:59:47;;;;;;;7.57;6.32;;;;;;;21.95;64.68;100221.00;2056964;28;20078;-68
2022/08/15 05:01:09;;;;;;;9.80;6.40;;;;;;;21.88;64.60;100217.06;2064694;28;20055;-68
2022/08/15 05:02:24;;;;;;;14.60;6.22;;;;;;;21.88;64.54;100211.63;2055519;28;20150;-68
2022/08/15 05:03:46;;;;;;;9.50;5.43;;;;;;;21.85;64.85;100215.44;2059505;28;20819;-68
2022/08/15 05:04:59;;;;;;;6.93;6.22;;;;;;;21.81;65.16;100218.56;2063785;28;20047;-67
2022/08/15 05:06:07;;;;;;;7.07;6.18;;;;;;;21.73;65.30;100214.59;2063236;28;20671;-67
2022/08/15 05:07:28;;;;;;;6.57;5.70;;;;;;;21.76;65.14;100216.19;2055662;28;20959;-68
2022/08/15 05:08:35;;;;;;;11.10;6.10;;;;;;;21.79;65.44;100215.09;2055674;28;20028;-68
2022/08/15 05:09:47;;;;;;;7.85;6.18;;;;;;;21.81;65.18;100215.84;2056250;28;20075;-68
2022/08/15 05:11:09;;;;;;;6.95;6.30;;;;;;;21.79;64.81;100220.53;2064140;28;21074;-68
2022/08/15 05:12:18;;;;;;;7.80;5.88;;;;;;;21.77;64.96;100214.31;2055541;28;20887;-68
2022/08/15 05:13:32;;;;;;;8.80;5.88;;;;;;;21.74;65.24;100210.88;2056671;28;20047;-68
2022/08/15 05:14:33;;;;;;;5.75;4.95;;;;;;;21.81;65.09;100221.28;2063604;28;20043;-68
2022/08/15 05:15:39;;;;;;;10.77;5.97;;;;;;;21.82;65.30;100220.28;2063820;28;20189;-68
2022/08/15 05:16:49;;;;;;;7.50;5.57;;;;;;;21.90;64.74;100229.56;2055698;28;20209;-68
2022/08/15 05:17:53;;;;;;;8.73;5.63;;;;;;;21.85;64.55;100218.16;2057169;28;20047;-67
2022/08/15 05:19:00;;;;;;;6.95;5.53;;;;;;;22.00;64.22;100212.44;2063666;28;20051;-68
2022/08/15 05:20:07;;;;;;;5.78;5.30;;;;;;;22.16;63.55;100221.06;2063656;28;20035;-68
2022/08/15 05:21:11;;;;;;;6.38;5.10;;;;;;;22.33;62.85;100219.72;2063782;28;20043;-68
2022/08/15 05:22:16;;;;;;;6.78;5.55;;;;;;;22.36;62.75;100219.47;2063830;28;20102;-68
2022/08/15 05:23:22;;;;;;;7.70;5.72;;;;;;;22.32;62.91;100217.97;2063922;28;20043;-68
2022/08/15 05:24:38;;;;;;;7.05;5.35;;;;;;;22.32;62.65;100212.53;2061863;28;20808;-68